Time;durP1;ratioP1;P1;durP2;ratioP2;P2;SDS_P1;SDS_P2;PMS_P1;PMS_P2;Temp;Humidity;BMP_temperature;BMP_pressure;BME280_temperature;BME280_humidity;BME280_pressure;Samples;Min_cycle;Max_cycle;Signal;HPM_P1;HPM_P2
2022/09/30 00:00:25;;;;;;;4.20;3.10;;;;;;;-145.49;100.00;62790.56;4962098;28;20424;-72
2022/09/30 00:02:56;;;;;;;5.93;3.75;;;;;;;-145.49;100.00;62790.56;4961425;28;20031;-75
2022/09/30 00:05:22;;;;;;;10.00;4.75;;;;;;;-145.49;100.00;62790.56;4967920;28;20154;-75
2022/09/30 00:07:49;;;;;;;4.28;3.30;;;;;;;-145.49;100.00;62790.56;4966240;28;20512;-75
2022/09/30 00:10:17;;;;;;;4.53;4.10;;;;;;;-145.49;100.00;62790.56;4966532;28;20038;-75
2022/09/30 00:12:43;;;;;;;6.28;3.58;;;;;;;-145.49;100.00;62790.56;4968774;28;20058;-75
2022/09/30 00:15:10;;;;;;;4.15;3.38;;;;;;;-145.49;100.00;62790.56;4966618;28;20034;-75
2022/09/30 00:17:36;;;;;;;3.85;3.55;;;;;;;-145.49;100.00;62790.56;4966875;28;20039;-73
2022/09/30 00:20:02;;;;;;;5.72;4.00;;;;;;;-145.49;100.00;62790.56;4951278;28;20045;-74
2022/09/30 00:22:28;;;;;;;3.63;3.30;;;;;;;-145.49;100.00;62790.56;4967263;28;20424;-74
2022/09/30 00:24:57;;;;;;;10.65;3.08;;;;;;;-145.49;100.00;62790.56;4951255;28;20524;-74
2022/09/30 00:27:23;;;;;;;4.72;3.92;;;;;;;-145.49;100.00;62790.56;4967006;28;20400;-74
2022/09/30 00:29:52;;;;;;;4.55;3.65;;;;;;;-145.49;100.00;62790.56;4973011;28;20046;-74
2022/09/30 00:32:20;;;;;;;7.65;3.72;;;;;;;-145.49;100.00;62790.56;4967608;28;20544;-74
2022/09/30 00:34:46;;;;;;;6.75;2.95;;;;;;;-145.49;100.00;62790.56;4974053;28;20035;-73
2022/09/30 00:37:15;;;;;;;4.47;3.67;;;;;;;-145.49;100.00;62790.56;4968030;28;20034;-73
2022/09/30 00:39:41;;;;;;;6.07;3.97;;;;;;;-145.49;100.00;62790.56;4967119;28;20041;-74
2022/09/30 00:42:13;;;;;;;6.70;3.45;;;;;;;-145.49;100.00;62790.56;4960971;28;20041;-75
2022/09/30 00:44:47;;;;;;;3.90;3.50;;;;;;;-145.49;100.00;62790.56;4965883;28;20046;-73
2022/09/30 00:47:32;;;;;;;9.27;3.60;;;;;;;-145.49;100.00;62790.56;4967180;28;20042;-74
2022/09/30 00:50:05;;;;;;;4.75;2.92;;;;;;;-145.49;100.00;62790.56;4967284;28;20038;-73
2022/09/30 00:52:33;;;;;;;4.32;3.10;;;;;;;-145.49;100.00;62790.56;4968089;28;20050;-74
2022/09/30 00:55:07;;;;;;;4.40;3.42;;;;;;;-145.49;100.00;62790.56;4983132;28;20034;-73
2022/09/30 00:57:35;;;;;;;15.15;4.47;;;;;;;-145.49;100.00;62790.56;4965720;28;20049;-74
2022/09/30 01:00:04;;;;;;;8.07;3.25;;;;;;;-145.49;100.00;62790.56;4967733;28;20035;-73
2022/09/30 01:02:30;;;;;;;2.90;2.63;;;;;;;-145.49;100.00;62790.56;4957882;28;20055;-74
2022/09/30 01:04:58;;;;;;;4.72;3.28;;;;;;;-145.49;100.00;62790.56;4964170;28;20036;-74
2022/09/30 01:07:27;;;;;;;6.53;3.42;;;;;;;-145.49;100.00;62790.56;4966974;28;20041;-73
2022/09/30 01:09:56;;;;;;;5.13;3.80;;;;;;;-145.49;100.00;62790.56;4966923;28;20043;-73
2022/09/30 01:12:26;;;;;;;5.55;3.60;;;;;;;-145.49;100.00;62790.56;4930511;28;20516;-73
2022/09/30 01:14:56;;;;;;;5.90;3.63;;;;;;;-145.49;100.00;62790.56;4958749;28;20047;-73
2022/09/30 01:17:40;;;;;;;4.75;3.15;;;;;;;-145.49;100.00;62790.56;4951532;28;20055;-73
2022/09/30 01:20:31;;;;;;;8.25;3.72;;;;;;;-145.49;100.00;62790.56;4963451;28;20042;-73
2022/09/30 01:23:29;;;;;;;3.50;2.75;;;;;;;-145.49;100.00;62790.56;4960439;28;20517;-73
2022/09/30 01:26:36;;;;;;;4.43;3.78;;;;;;;-145.49;100.00;62790.56;4967285;28;20408;-73
2022/09/30 01:29:40;;;;;;;4.20;3.30;;;;;;;-145.49;100.00;62790.56;4944867;28;20043;-73
2022/09/30 01:32:31;;;;;;;4.82;2.47;;;;;;;-145.49;100.00;62790.56;4947447;28;20035;-74
2022/09/30 01:35:30;;;;;;;3.75;2.40;;;;;;;-145.49;100.00;62790.56;4965641;28;20045;-73
2022/09/30 01:38:10;;;;;;;3.58;2.88;;;;;;;-145.49;100.00;62790.56;4967811;28;20049;-73
2022/09/30 01:40:44;;;;;;;5.55;2.83;;;;;;;-145.49;100.00;62790.56;4965001;28;20047;-74
2022/09/30 01:43:22;;;;;;;5.20;2.97;;;;;;;-145.49;100.00;62790.56;4972552;28;20034;-73
2022/09/30 01:45:55;;;;;;;6.00;2.85;;;;;;;-145.49;100.00;62790.56;4964247;28;20050;-74
2022/09/30 01:48:27;;;;;;;5.53;3.33;;;;;;;-145.49;100.00;62790.56;4953738;28;20039;-73
2022/09/30 01:51:10;;;;;;;4.70;3.50;;;;;;;-145.49;100.00;62790.56;4966275;28;20053;-73
2022/09/30 01:53:42;;;;;;;4.70;3.17;;;;;;;-145.49;100.00;62790.56;4965685;28;20030;-73
2022/09/30 01:56:15;;;;;;;4.13;3.38;;;;;;;-145.49;100.00;62790.56;4964539;28;20696;-73
2022/09/30 01:58:58;;;;;;;3.33;2.50;;;;;;;-145.49;100.00;62790.56;4964764;28;20038;-74
2022/09/30 02:01:43;;;;;;;3.83;3.20;;;;;;;-145.49;100.00;62790.56;4981752;28;20039;-73
2022/09/30 02:04:18;;;;;;;3.40;3.10;;;;;;;-145.49;100.00;62790.56;4966057;28;20388;-74
2022/09/30 02:06:51;;;;;;;4.45;3.10;;;;;;;-145.49;100.00;62790.56;4964695;28;20053;-73
2022/09/30 02:09:26;;;;;;;3.70;2.53;;;;;;;-145.49;100.00;62790.56;4966496;28;20228;-73
2022/09/30 02:12:06;;;;;;;4.90;3.10;;;;;;;-145.49;100.00;62790.56;4965771;28;20046;-74
2022/09/30 02:14:38;;;;;;;5.28;2.65;;;;;;;-145.49;100.00;62790.56;4965166;28;20107;-73
2022/09/30 02:18:02;;;;;;;3.65;2.95;;;;;;;-145.49;100.00;62790.56;4965006;28;20507;-73
2022/09/30 02:20:31;;;;;;;6.28;3.10;;;;;;;-145.49;100.00;62790.56;4959411;28;20172;-74
2022/09/30 02:23:05;;;;;;;6.13;3.55;;;;;;;-145.49;100.00;62790.56;4968744;28;20034;-74
2022/09/30 02:25:38;;;;;;;3.17;2.72;;;;;;;-145.49;100.00;62790.56;4963421;28;20035;-72
2022/09/30 02:28:07;;;;;;;7.82;3.20;;;;;;;-145.49;100.00;62790.56;4978420;28;20053;-74
2022/09/30 02:30:36;;;;;;;4.28;3.55;;;;;;;-145.49;100.00;62790.56;4977729;28;20042;-74
2022/09/30 02:33:12;;;;;;;3.70;2.42;;;;;;;-145.49;100.00;62790.56;4961838;28;20053;-75
2022/09/30 02:35:48;;;;;;;7.28;3.38;;;;;;;-145.49;100.00;62790.56;4968380;28;20033;-74
2022/09/30 02:38:30;;;;;;;7.00;3.40;;;;;;;-145.49;100.00;62790.56;4962718;28;20039;-74
2022/09/30 02:41:09;;;;;;;7.00;3.92;;;;;;;-145.49;100.00;62790.56;4965135;28;20045;-73
2022/09/30 02:43:40;;;;;;;3.70;3.08;;;;;;;-145.49;100.00;62790.56;4965902;28;20057;-73
2022/09/30 02:46:28;;;;;;;8.80;3.80;;;;;;;-145.49;100.00;62790.56;4965821;28;20042;-74
2022/09/30 02:49:22;;;;;;;6.47;3.70;;;;;;;-145.49;100.00;62790.56;4962690;28;20039;-73
2022/09/30 02:51:48;;;;;;;;;;;;;;;-145.49;100.00;62790.56;4964261;28;20034;-73
2022/09/30 02:54:25;;;;;;;4.97;3.10;;;;;;;-145.49;100.00;62790.56;4965455;28;19914;-74
2022/09/30 02:57:18;;;;;;;6.18;3.75;;;;;;;-145.49;100.00;62790.56;4956665;28;20031;-74
2022/09/30 02:59:52;;;;;;;7.20;3.35;;;;;;;-145.49;100.00;62790.56;4961105;28;20066;-73
2022/09/30 03:02:22;;;;;;;4.40;3.30;;;;;;;-145.49;100.00;62790.56;4956101;28;20054;-73
2022/09/30 03:04:49;;;;;;;2.95;2.72;;;;;;;-145.49;100.00;62790.56;4979450;28;20065;-73
2022/09/30 03:07:18;;;;;;;4.30;3.67;;;;;;;-145.49;100.00;62790.56;4963620;28;20139;-73
2022/09/30 03:09:47;;;;;;;6.60;3.53;;;;;;;-145.49;100.00;62790.56;4980120;28;20042;-73
2022/09/30 03:12:18;;;;;;;3.55;2.35;;;;;;;-145.49;100.00;62790.56;4965505;28;20408;-73
2022/09/30 03:15:10;;;;;;;6.32;2.70;;;;;;;-145.49;100.00;62790.56;4963623;28;20045;-73
2022/09/30 03:17:58;;;;;;;3.30;2.60;;;;;;;-145.49;100.00;62790.56;4963788;28;20038;-74
2022/09/30 03:20:38;;;;;;;5.15;3.03;;;;;;;-145.49;100.00;62790.56;4965218;28;20046;-74
2022/09/30 03:23:38;;;;;;;8.48;3.03;;;;;;;-145.49;100.00;62790.56;4963491;28;20046;-73
2022/09/30 03:26:18;;;;;;;4.65;3.25;;;;;;;-145.49;100.00;62790.56;4967886;28;20042;-73
2022/09/30 03:28:45;;;;;;;5.43;3.08;;;;;;;-145.49;100.00;62790.56;4968699;28;20042;-74
2022/09/30 03:31:30;;;;;;;3.63;2.58;;;;;;;-145.49;100.00;62790.56;4965832;28;20035;-73
2022/09/30 03:34:26;;;;;;;6.53;3.15;;;;;;;-145.49;100.00;62790.56;4965091;28;20043;-73
2022/09/30 03:37:11;;;;;;;5.30;3.33;;;;;;;-145.49;100.00;62790.56;4962063;28;20501;-73
2022/09/30 03:39:43;;;;;;;6.38;2.92;;;;;;;-145.49;100.00;62790.56;4968852;28;20038;-74
2022/09/30 03:42:16;;;;;;;5.75;2.70;;;;;;;-145.49;100.00;62790.56;4965873;28;20042;-73
2022/09/30 03:45:04;;;;;;;2.92;2.67;;;;;;;-145.49;100.00;62790.56;4964864;28;20516;-73
2022/09/30 03:47:38;;;;;;;5.20;2.65;;;;;;;-145.49;100.00;62790.56;4970084;28;20630;-74
2022/09/30 03:50:07;;;;;;;7.05;3.10;;;;;;;-145.49;100.00;62790.56;4970044;28;20035;-73
2022/09/30 03:52:38;;;;;;;4.40;3.28;;;;;;;-145.49;100.00;62790.56;4967482;28;20109;-73
2022/09/30 03:55:07;;;;;;;5.07;3.90;;;;;;;-145.49;100.00;62790.56;4966273;28;20545;-73
2022/09/30 03:57:36;;;;;;;8.90;3.88;;;;;;;-145.49;100.00;62790.56;4967025;28;20054;-74
2022/09/30 04:00:05;;;;;;;6.20;2.92;;;;;;;-145.49;100.00;62790.56;4964799;28;20035;-73
2022/09/30 04:02:39;;;;;;;4.72;3.95;;;;;;;-145.49;100.00;62790.56;4967137;28;20034;-73
2022/09/30 04:05:08;;;;;;;4.50;3.78;;;;;;;-145.49;100.00;62790.56;4965646;28;20062;-73
2022/09/30 04:07:37;;;;;;;4.38;3.03;;;;;;;-145.49;100.00;62790.56;4970580;28;20039;-73
2022/09/30 04:10:04;;;;;;;5.10;3.35;;;;;;;-145.49;100.00;62790.56;4969943;28;20038;-73
2022/09/30 04:12:32;;;;;;;8.25;3.40;;;;;;;-145.49;100.00;62790.56;4966039;28;20035;-73
2022/09/30 04:15:05;;;;;;;6.85;3.40;;;;;;;-145.49;100.00;62790.56;4961842;28;20039;-73
2022/09/30 04:17:31;;;;;;;4.07;2.58;;;;;;;-145.49;100.00;62790.56;4971291;28;20043;-74
2022/09/30 04:19:57;;;;;;;3.30;2.45;;;;;;;-145.49;100.00;62790.56;4969670;28;20043;-72
2022/09/30 04:22:23;;;;;;;4.13;3.65;;;;;;;-145.49;100.00;62790.56;4955395;28;20628;-73
2022/09/30 04:24:51;;;;;;;5.32;3.08;;;;;;;-145.49;100.00;62790.56;4973819;28;20401;-73
2022/09/30 04:27:17;;;;;;;3.22;2.83;;;;;;;-145.49;100.00;62790.56;4971892;28;20039;-73
2022/09/30 04:29:44;;;;;;;4.45;2.95;;;;;;;-145.49;100.00;62790.56;4963353;28;20038;-73
2022/09/30 04:32:10;;;;;;;4.60;2.17;;;;;;;-145.49;100.00;62790.56;4968398;28;20043;-73
2022/09/30 04:34:36;;;;;;;6.80;3.53;;;;;;;-145.49;100.00;62790.56;4971460;28;20042;-73
2022/09/30 04:37:07;;;;;;;5.47;2.90;;;;;;;-145.49;100.00;62790.56;4965296;28;20049;-73
2022/09/30 04:39:33;;;;;;;3.60;3.28;;;;;;;-145.49;100.00;62790.56;4958080;28;20498;-73
2022/09/30 04:42:00;;;;;;;3.38;2.55;;;;;;;-145.49;100.00;62790.56;4964450;28;20405;-74
2022/09/30 04:44:26;;;;;;;3.53;2.42;;;;;;;-145.49;100.00;62790.56;4963337;28;20045;-73
2022/09/30 04:46:54;;;;;;;5.05;4.03;;;;;;;-145.49;100.00;62790.56;4964020;28;20497;-74
2022/09/30 04:49:23;;;;;;;9.65;3.72;;;;;;;-145.49;100.00;62790.56;4969760;28;20043;-73
2022/09/30 04:51:49;;;;;;;4.47;3.65;;;;;;;-145.49;100.00;62790.56;4971613;28;20046;-74
2022/09/30 04:54:15;;;;;;;6.25;4.18;;;;;;;-145.49;100.00;62790.56;4963471;28;20031;-73
2022/09/30 04:56:42;;;;;;;9.40;3.92;;;;;;;-145.49;100.00;62790.56;4970679;28;20404;-73
2022/09/30 04:59:15;;;;;;;5.88;3.83;;;;;;;-145.49;100.00;62790.56;4951634;28;20042;-73
2022/09/30 05:01:43;;;;;;;4.53;3.85;;;;;;;-145.49;100.00;62790.56;4970161;28;20039;-73
2022/09/30 05:04:11;;;;;;;4.80;3.15;;;;;;;-145.49;100.00;62790.56;4970164;28;20031;-74
2022/09/30 05:06:40;;;;;;;4.32;3.20;;;;;;;-145.49;100.00;62790.56;4965054;28;20042;-74
2022/09/30 05:09:09;;;;;;;5.00;4.50;;;;;;;-145.49;100.00;62790.56;4972842;28;20035;-74
2022/09/30 05:11:41;;;;;;;6.05;2.92;;;;;;;-145.49;100.00;62790.56;4987664;28;20030;-73
2022/09/30 05:14:10;;;;;;;3.47;2.88;;;;;;;-145.49;100.00;62790.56;4965050;28;20034;-74
2022/09/30 05:16:43;;;;;;;4.53;3.53;;;;;;;-145.49;100.00;62790.56;4964653;28;20034;-73
2022/09/30 05:19:10;;;;;;;4.22;3.70;;;;;;;-145.49;100.00;62790.56;4972462;28;20037;-73
2022/09/30 05:21:36;;;;;;;5.78;3.78;;;;;;;-145.49;100.00;62790.56;4981662;23;21331;-81
2022/09/30 05:24:04;;;;;;;5.57;3.97;;;;;;;-145.49;100.00;62790.56;4967870;28;20046;-81
2022/09/30 05:26:35;;;;;;;8.07;4.22;;;;;;;-145.49;100.00;62790.56;4976682;28;20042;-81
2022/09/30 05:29:01;;;;;;;7.55;3.63;;;;;;;-145.49;100.00;62790.56;4965457;28;20413;-81
2022/09/30 05:31:30;;;;;;;4.55;3.35;;;;;;;-145.49;100.00;62790.56;4988039;28;20389;-81
2022/09/30 05:34:01;;;;;;;3.67;3.10;;;;;;;-145.49;100.00;62790.56;4966781;28;20035;-81
2022/09/30 05:36:29;;;;;;;4.82;3.78;;;;;;;-145.49;100.00;62790.56;4969816;28;20035;-81
2022/09/30 05:38:58;;;;;;;4.60;3.70;;;;;;;-145.49;100.00;62790.56;4953914;28;20043;-81
2022/09/30 05:41:26;;;;;;;5.30;4.15;;;;;;;-145.49;100.00;62790.56;4969808;28;20054;-81
2022/09/30 05:43:55;;;;;;;4.03;3.63;;;;;;;-145.49;100.00;62790.56;4972001;28;20038;-82
2022/09/30 05:46:24;;;;;;;5.68;4.35;;;;;;;-145.49;100.00;62790.56;4985271;28;20274;-81
2022/09/30 05:48:51;;;;;;;10.60;8.23;;;;;;;-145.49;100.00;62790.56;4968626;28;20035;-81
2022/09/30 05:51:20;;;;;;;4.43;3.78;;;;;;;-145.49;100.00;62790.56;4966570;28;20396;-81
2022/09/30 05:53:51;;;;;;;4.32;3.70;;;;;;;-145.49;100.00;62790.56;4971927;28;20039;-81
2022/09/30 05:56:20;;;;;;;6.38;3.45;;;;;;;-145.49;100.00;62790.56;4971129;28;20569;-81
2022/09/30 05:58:53;;;;;;;6.10;3.80;;;;;;;-145.49;100.00;62790.56;4962033;28;20046;-81
2022/09/30 06:01:24;;;;;;;5.22;3.67;;;;;;;-145.49;100.00;62790.56;4968376;28;20030;-81
2022/09/30 06:03:50;;;;;;;3.55;3.05;;;;;;;-145.49;100.00;62790.56;4969215;28;20033;-81
2022/09/30 06:06:17;;;;;;;9.38;3.60;;;;;;;-145.49;100.00;62790.56;4966990;28;20058;-82
2022/09/30 06:08:44;;;;;;;5.20;3.03;;;;;;;-145.49;100.00;62790.56;4966397;28;20039;-81
2022/09/30 06:11:19;;;;;;;4.18;3.40;;;;;;;-145.49;100.00;62790.56;4986988;28;20039;-81
2022/09/30 06:13:48;;;;;;;6.05;3.45;;;;;;;-145.49;100.00;62790.56;4986789;28;20436;-81
2022/09/30 06:16:17;;;;;;;5.28;3.78;;;;;;;-145.49;100.00;62790.56;4967328;28;20034;-81
2022/09/30 06:18:43;;;;;;;11.02;4.68;;;;;;;-145.49;100.00;62790.56;4963751;28;20481;-81
2022/09/30 06:21:16;;;;;;;4.82;4.13;;;;;;;-145.49;100.00;62790.56;4965071;28;20038;-81
2022/09/30 06:23:43;;;;;;;4.40;4.00;;;;;;;-145.49;100.00;62790.56;4967083;28;20034;-81
2022/09/30 06:26:12;;;;;;;4.43;3.50;;;;;;;-145.49;100.00;62790.56;4970223;28;20054;-82
2022/09/30 06:28:42;;;;;;;12.10;4.53;;;;;;;-145.49;100.00;62790.56;4984811;28;20046;-82
2022/09/30 06:31:09;;;;;;;5.78;4.25;;;;;;;-145.49;100.00;62790.56;4986131;28;20042;-82
2022/09/30 06:33:35;;;;;;;5.72;3.13;;;;;;;-145.49;100.00;62790.56;4986381;28;20058;-82
2022/09/30 06:36:05;;;;;;;3.40;3.10;;;;;;;-145.49;100.00;62790.56;4958965;28;20035;-82
2022/09/30 06:38:37;;;;;;;5.35;3.90;;;;;;;-145.49;100.00;62790.56;4967192;28;20039;-82
2022/09/30 06:41:04;;;;;;;6.28;4.22;;;;;;;-145.49;100.00;62790.56;4965261;28;20481;-82
2022/09/30 06:43:32;;;;;;;8.73;4.28;;;;;;;-145.49;100.00;62790.56;4969688;28;20035;-82
2022/09/30 06:46:00;;;;;;;4.65;4.20;;;;;;;-145.49;100.00;62790.56;4973431;28;20146;-83
2022/09/30 06:48:30;;;;;;;3.70;2.75;;;;;;;-145.49;100.00;62790.56;4972109;28;20034;-83
2022/09/30 06:50:59;;;;;;;11.90;3.67;;;;;;;-145.49;100.00;62790.56;4972058;28;20034;-82
2022/09/30 06:53:35;;;;;;;3.55;2.72;;;;;;;-145.49;100.00;62790.56;4967704;28;20041;-82
2022/09/30 06:56:06;;;;;;;3.65;2.88;;;;;;;-145.49;100.00;62790.56;4966241;28;20476;-83
2022/09/30 06:58:34;;;;;;;16.80;3.03;;;;;;;-145.49;100.00;62790.56;4963784;28;20059;-83
2022/09/30 07:01:05;;;;;;;3.15;2.63;;;;;;;-145.49;100.00;62790.56;4967988;28;20042;-82
2022/09/30 07:03:34;;;;;;;4.00;2.70;;;;;;;-145.49;100.00;62790.56;4969900;28;20046;-82
2022/09/30 07:06:07;;;;;;;5.82;3.13;;;;;;;-145.49;100.00;62790.56;4978998;28;20049;-82
2022/09/30 07:08:39;;;;;;;3.15;2.67;;;;;;;-145.49;100.00;62790.56;4983769;28;20035;-82
2022/09/30 07:11:13;;;;;;;3.13;2.65;;;;;;;-145.49;100.00;62790.56;4961318;28;20058;-82
2022/09/30 07:13:44;;;;;;;3.50;2.50;;;;;;;-145.49;100.00;62790.56;4984117;28;20121;-82
2022/09/30 07:16:12;;;;;;;4.03;2.80;;;;;;;-145.49;100.00;62790.56;4984191;28;20038;-83
2022/09/30 07:18:45;;;;;;;3.08;2.78;;;;;;;-145.49;100.00;62790.56;4967512;28;20038;-83
2022/09/30 07:21:14;;;;;;;5.78;3.15;;;;;;;-145.49;100.00;62790.56;4969763;28;20034;-83
2022/09/30 07:23:47;;;;;;;3.22;2.42;;;;;;;-145.49;100.00;62790.56;4953350;28;20512;-83
2022/09/30 07:26:20;;;;;;;5.50;3.33;;;;;;;-145.49;100.00;62790.56;4985620;28;20042;-82
2022/09/30 07:28:50;;;;;;;3.92;3.13;;;;;;;-145.49;100.00;62790.56;4968366;28;20353;-83
2022/09/30 07:31:27;;;;;;;4.05;2.80;;;;;;;-145.49;100.00;62790.56;4966817;28;20038;-83
2022/09/30 07:33:54;;;;;;;12.43;3.88;;;;;;;-145.49;100.00;62790.56;4985234;28;20037;-84
2022/09/30 07:36:26;;;;;;;7.03;3.22;;;;;;;-145.49;100.00;62790.56;4969078;28;20050;-84
2022/09/30 07:38:53;;;;;;;5.45;2.92;;;;;;;-145.49;100.00;62790.56;4966466;28;20042;-83
2022/09/30 07:41:27;;;;;;;5.20;3.17;;;;;;;-145.49;100.00;62790.56;4963392;28;20039;-84
2022/09/30 07:43:58;;;;;;;3.92;2.95;;;;;;;-145.49;100.00;62790.56;4953594;28;20043;-84
2022/09/30 07:46:32;;;;;;;3.85;2.38;;;;;;;-145.49;100.00;62790.56;4953526;29;20058;-84
2022/09/30 07:49:05;;;;;;;;;;;;;;;-145.49;100.00;62790.56;4956771;28;20031;-84
2022/09/30 07:51:34;;;;;;;14.93;3.78;;;;;;;-145.49;100.00;62790.56;4968766;28;19918;-85
2022/09/30 07:54:06;;;;;;;3.42;2.67;;;;;;;-145.49;100.00;62790.56;4972707;28;20035;-84
2022/09/30 07:56:38;;;;;;;4.35;3.58;;;;;;;-145.49;100.00;62790.56;4972466;28;20039;-84
2022/09/30 07:59:07;;;;;;;3.25;2.50;;;;;;;-145.49;100.00;62790.56;4958511;28;20042;-84
2022/09/30 08:01:45;;;;;;;4.18;2.63;;;;;;;-145.49;100.00;62790.56;4985769;28;20039;-84
2022/09/30 08:04:18;;;;;;;3.95;2.88;;;;;;;-145.49;100.00;62790.56;4972596;28;20034;-84
2022/09/30 08:06:47;;;;;;;3.65;2.67;;;;;;;-145.49;100.00;62790.56;4969662;28;20042;-84
2022/09/30 08:09:20;;;;;;;4.88;2.60;;;;;;;-145.49;100.00;62790.56;4970208;28;20031;-84
2022/09/30 08:11:46;;;;;;;6.78;3.55;;;;;;;-145.49;100.00;62790.56;4960212;28;20043;-84
2022/09/30 08:14:20;;;;;;;4.55;3.03;;;;;;;-145.49;100.00;62790.56;4963374;28;20034;-84
2022/09/30 08:16:49;;;;;;;4.03;3.63;;;;;;;-145.49;100.00;62790.56;4970477;28;20046;-84
2022/09/30 08:19:21;;;;;;;3.88;3.15;;;;;;;-145.49;100.00;62790.56;4986738;28;20045;-84
2022/09/30 08:21:51;;;;;;;5.90;3.85;;;;;;;-145.49;100.00;62790.56;4984201;28;20507;-83
2022/09/30 08:24:18;;;;;;;5.50;3.75;;;;;;;-145.49;100.00;62790.56;4981920;28;20038;-83
2022/09/30 08:26:46;;;;;;;6.90;4.57;;;;;;;-145.49;100.00;62790.56;4972525;28;20523;-84
2022/09/30 08:29:17;;;;;;;6.20;3.58;;;;;;;-145.49;100.00;62790.56;4970009;28;20042;-84
2022/09/30 08:31:45;;;;;;;8.05;3.75;;;;;;;-145.49;100.00;62790.56;4955608;28;20523;-85
2022/09/30 08:34:12;;;;;;;5.68;3.88;;;;;;;-145.49;100.00;62790.56;4966692;28;20031;-84
2022/09/30 08:36:38;;;;;;;4.55;3.08;;;;;;;-145.49;100.00;62790.56;4989605;28;20061;-84
2022/09/30 08:39:04;;;;;;;4.63;3.92;;;;;;;-145.49;100.00;62790.56;4974305;28;20041;-85
2022/09/30 08:42:04;;;;;;;4.85;3.72;;;;;;;-145.49;100.00;62790.56;4971752;28;20054;-85
2022/09/30 08:44:47;;;;;;;6.57;5.03;;;;;;;-145.49;100.00;62790.56;4966815;28;20042;-85
2022/09/30 08:47:29;;;;;;;4.82;3.45;;;;;;;-145.49;100.00;62790.56;4987645;28;20031;-85
2022/09/30 08:50:28;;;;;;;5.82;4.20;;;;;;;-145.49;100.00;62790.56;4988459;28;20035;-85
2022/09/30 08:53:06;;;;;;;4.35;3.95;;;;;;;-145.49;100.00;62790.56;4969661;28;20405;-85
2022/09/30 08:55:41;;;;;;;6.32;5.03;;;;;;;-145.49;100.00;62790.56;4972358;28;20523;-85
2022/09/30 08:58:25;;;;;;;8.73;5.18;;;;;;;-145.49;100.00;62790.56;4956558;28;20030;-83
2022/09/30 09:00:59;;;;;;;6.45;4.90;;;;;;;-145.49;100.00;62790.56;4972745;28;20045;-84
2022/09/30 09:03:30;;;;;;;6.82;4.65;;;;;;;-145.49;100.00;62790.56;4970280;28;20043;-84
2022/09/30 09:06:06;;;;;;;6.18;5.60;;;;;;;-145.49;100.00;62790.56;4965724;28;20205;-83
2022/09/30 09:09:11;;;;;;;5.85;5.03;;;;;;;-145.49;100.00;62790.56;4969973;28;20050;-83
2022/09/30 09:11:52;;;;;;;6.50;4.90;;;;;;;-145.49;100.00;62790.56;4973794;28;20405;-83
2022/09/30 09:14:31;;;;;;;7.47;5.85;;;;;;;-145.49;100.00;62790.56;4969887;28;20038;-83
2022/09/30 09:17:20;;;;;;;11.70;6.28;;;;;;;-145.49;100.00;62790.56;4939754;28;20031;-84
2022/09/30 09:20:10;;;;;;;11.77;5.43;;;;;;;-145.49;100.00;62790.56;4972183;28;20051;-83
2022/09/30 09:22:39;;;;;;;7.72;6.55;;;;;;;-145.49;100.00;62790.56;4987695;28;20034;-83
2022/09/30 09:25:14;;;;;;;11.68;8.00;;;;;;;-145.49;100.00;62790.56;4955910;28;20046;-83
2022/09/30 09:27:53;;;;;;;8.27;7.30;;;;;;;-145.49;100.00;62790.56;4963646;28;20119;-85
2022/09/30 09:30:26;;;;;;;11.77;7.55;;;;;;;-145.49;100.00;62790.56;4979498;28;20031;-86
2022/09/30 09:32:57;;;;;;;9.25;6.30;;;;;;;-145.49;100.00;62790.56;4971078;28;20046;-80
2022/09/30 09:35:23;;;;;;;9.63;6.75;;;;;;;-145.49;100.00;62790.56;4970780;28;20030;-84
2022/09/30 09:38:27;;;;;;;9.57;7.13;;;;;;;-145.49;100.00;62790.56;4969976;28;20045;-84
2022/09/30 09:41:05;;;;;;;8.45;7.15;;;;;;;-145.49;100.00;62790.56;4971585;28;20031;-85
2022/09/30 09:43:59;;;;;;;7.90;6.57;;;;;;;-145.49;100.00;62790.56;4986397;28;20039;-84
2022/09/30 09:46:33;;;;;;;8.43;6.53;;;;;;;-145.49;100.00;62790.56;4966362;28;20227;-84
2022/09/30 09:49:28;;;;;;;8.05;5.90;;;;;;;-145.49;100.00;62790.56;4970399;28;20043;-85
2022/09/30 09:52:14;;;;;;;7.65;6.25;;;;;;;-145.49;100.00;62790.56;4970279;28;20504;-83
2022/09/30 09:55:08;;;;;;;;;;;;;;;-145.49;100.00;62790.56;4971108;28;20038;-83
2022/09/30 09:57:34;;;;;;;11.50;7.40;;;;;;;-145.49;100.00;62790.56;4982989;28;19921;-84
2022/09/30 10:03:00;;;;;;;8.70;6.75;;;;;;;-145.49;100.00;62790.56;4973567;28;20046;-84
2022/09/30 10:05:31;;;;;;;8.63;7.00;;;;;;;-145.49;100.00;62790.56;4955579;28;20047;-84
2022/09/30 10:08:09;;;;;;;9.70;7.35;;;;;;;-145.49;100.00;62790.56;4988551;28;20038;-84
2022/09/30 10:10:57;;;;;;;8.52;6.82;;;;;;;-145.49;100.00;62790.56;4968562;28;20042;-83
2022/09/30 10:13:36;;;;;;;8.82;6.57;;;;;;;-145.49;100.00;62790.56;4973430;28;20046;-84
2022/09/30 10:16:05;;;;;;;13.85;6.53;;;;;;;-145.49;100.00;62790.56;4968836;28;20046;-84
2022/09/30 10:18:34;;;;;;;13.18;6.30;;;;;;;-145.49;100.00;62790.56;4973172;28;20041;-84
2022/09/30 10:21:06;;;;;;;8.77;6.57;;;;;;;-145.49;100.00;62790.56;4973191;28;20042;-84
2022/09/30 10:23:37;;;;;;;9.73;6.35;;;;;;;-145.49;100.00;62790.56;4972102;28;20049;-85
2022/09/30 10:26:19;;;;;;;8.70;6.22;;;;;;;-145.49;100.00;62790.56;4968956;28;20031;-84
2022/09/30 10:29:00;;;;;;;7.97;5.70;;;;;;;-145.49;100.00;62790.56;4970619;28;20330;-84
2022/09/30 10:31:42;;;;;;;9.30;6.25;;;;;;;-145.49;100.00;62790.56;4971079;28;20039;-84
2022/09/30 10:34:27;;;;;;;9.27;7.97;;;;;;;-145.49;100.00;62790.56;4977439;28;20043;-84
2022/09/30 10:37:01;;;;;;;8.40;6.15;;;;;;;-145.49;100.00;62790.56;4972069;28;20408;-84
2022/09/30 10:39:38;;;;;;;7.75;6.18;;;;;;;-145.49;100.00;62790.56;4987691;28;20035;-85
2022/09/30 10:42:14;;;;;;;7.85;5.93;;;;;;;-145.49;100.00;62790.56;4973529;28;20050;-85
2022/09/30 10:44:51;;;;;;;5.78;4.88;;;;;;;-145.49;100.00;62790.56;4972041;28;20034;-84
2022/09/30 10:47:21;;;;;;;8.15;5.32;;;;;;;-145.49;100.00;62790.56;4972652;28;20043;-83
2022/09/30 10:49:52;;;;;;;11.23;6.65;;;;;;;-145.49;100.00;62790.56;4970440;28;20437;-84
2022/09/30 10:52:27;;;;;;;6.53;5.13;;;;;;;-145.49;100.00;62790.56;4971571;28;20039;-84
2022/09/30 10:55:08;;;;;;;6.97;5.65;;;;;;;-145.49;100.00;62790.56;4972632;28;20035;-84
2022/09/30 10:57:36;;;;;;;9.45;5.47;;;;;;;-145.49;100.00;62790.56;4972670;28;20038;-84
2022/09/30 11:00:26;;;;;;;8.82;5.97;;;;;;;-145.49;100.00;62790.56;4952347;28;20035;-85
2022/09/30 11:02:55;;;;;;;6.55;5.20;;;;;;;-145.49;100.00;62790.56;4970161;28;20058;-84
2022/09/30 11:05:29;;;;;;;5.85;4.57;;;;;;;-145.49;100.00;62790.56;4968374;28;20388;-84
2022/09/30 11:08:09;;;;;;;4.75;4.25;;;;;;;-145.49;100.00;62790.56;4971496;28;20477;-83
2022/09/30 11:10:51;;;;;;;6.03;3.72;;;;;;;-145.49;100.00;62790.56;4970741;28;20405;-83
2022/09/30 11:13:26;;;;;;;11.40;4.68;;;;;;;-145.49;100.00;62790.56;4988156;28;20601;-84
2022/09/30 11:16:13;;;;;;;12.32;4.22;;;;;;;-145.49;100.00;62790.56;4971037;28;20041;-84
2022/09/30 11:19:03;;;;;;;6.43;4.65;;;;;;;-145.49;100.00;62790.56;4976354;28;20015;-84
2022/09/30 11:22:03;;;;;;;6.68;4.25;;;;;;;-145.49;100.00;62790.56;4985537;28;20035;-81
2022/09/30 11:24:42;;;;;;;6.15;4.50;;;;;;;-145.49;100.00;62790.56;4949586;29;20248;-74
2022/09/30 11:27:26;;;;;;;9.13;5.38;;;;;;;-145.49;100.00;62790.56;4942881;29;20036;-74
2022/09/30 11:30:00;;;;;;;6.90;4.00;;;;;;;-145.49;100.00;62790.56;4950228;29;20412;-74
2022/09/30 11:33:10;;;;;;;5.35;3.42;;;;;;;-145.49;100.00;62790.56;4945336;29;20055;-74
2022/09/30 11:36:01;;;;;;;6.38;3.50;;;;;;;-145.49;100.00;62790.56;4952584;29;20045;-73
2022/09/30 11:38:36;;;;;;;3.92;3.53;;;;;;;-145.49;100.00;62790.56;4946683;29;20159;-74
2022/09/30 11:41:21;;;;;;;4.60;3.42;;;;;;;-145.49;100.00;62790.56;4951423;29;20326;-74
2022/09/30 11:43:49;;;;;;;6.97;5.05;;;;;;;-145.49;100.00;62790.56;4949886;29;20035;-74